sensor_id;sensor_type;location;lat;lon;timestamp;P1;durP1;ratioP1;P2;durP2;ratioP2
74900;SDS011;63461;51.416;6.758;2024-03-25T00:00:38;29.50;;;10.83;;
74900;SDS011;63461;51.416;6.758;2024-03-25T00:03:04;30.67;;;11.23;;
74900;SDS011;63461;51.416;6.758;2024-03-25T00:05:30;42.60;;;13.70;;
74900;SDS011;63461;51.416;6.758;2024-03-25T00:07:57;34.07;;;12.33;;
74900;SDS011;63461;51.416;6.758;2024-03-25T00:10:23;36.77;;;12.17;;
74900;SDS011;63461;51.416;6.758;2024-03-25T00:12:49;28.87;;;11.10;;
74900;SDS011;63461;51.416;6.758;2024-03-25T00:15:19;39.37;;;13.03;;
74900;SDS011;63461;51.416;6.758;2024-03-25T00:17:49;44.27;;;13.67;;
74900;SDS011;63461;51.416;6.758;2024-03-25T00:20:15;20.90;;;8.00;;
74900;SDS011;63461;51.416;6.758;2024-03-25T00:22:41;31.97;;;9.43;;
74900;SDS011;63461;51.416;6.758;2024-03-25T00:25:07;32.33;;;9.17;;
74900;SDS011;63461;51.416;6.758;2024-03-25T00:27:34;34.73;;;8.27;;
74900;SDS011;63461;51.416;6.758;2024-03-25T00:30:00;30.07;;;6.87;;
74900;SDS011;63461;51.416;6.758;2024-03-25T00:32:25;28.73;;;5.80;;
74900;SDS011;63461;51.416;6.758;2024-03-25T00:34:51;19.03;;;5.20;;
74900;SDS011;63461;51.416;6.758;2024-03-25T00:37:17;31.33;;;5.90;;
74900;SDS011;63461;51.416;6.758;2024-03-25T00:39:44;24.57;;;5.20;;
74900;SDS011;63461;51.416;6.758;2024-03-25T00:42:10;24.10;;;4.37;;
74900;SDS011;63461;51.416;6.758;2024-03-25T00:44:36;21.70;;;4.23;;
74900;SDS011;63461;51.416;6.758;2024-03-25T00:47:02;24.10;;;4.03;;
74900;SDS011;63461;51.416;6.758;2024-03-25T00:49:28;22.97;;;4.10;;
74900;SDS011;63461;51.416;6.758;2024-03-25T00:51:53;21.10;;;3.60;;
74900;SDS011;63461;51.416;6.758;2024-03-25T00:54:19;21.43;;;3.80;;
74900;SDS011;63461;51.416;6.758;2024-03-25T00:56:45;15.90;;;3.47;;
74900;SDS011;63461;51.416;6.758;2024-03-25T00:59:11;23.93;;;4.07;;
74900;SDS011;63461;51.416;6.758;2024-03-25T01:01:37;20.83;;;3.30;;
74900;SDS011;63461;51.416;6.758;2024-03-25T01:04:03;19.10;;;3.10;;
74900;SDS011;63461;51.416;6.758;2024-03-25T01:06:29;24.50;;;3.43;;
74900;SDS011;63461;51.416;6.758;2024-03-25T01:08:55;25.70;;;3.63;;
74900;SDS011;63461;51.416;6.758;2024-03-25T01:11:21;14.57;;;3.23;;
74900;SDS011;63461;51.416;6.758;2024-03-25T01:13:47;22.30;;;3.50;;
74900;SDS011;63461;51.416;6.758;2024-03-25T01:16:14;23.40;;;3.70;;
74900;SDS011;63461;51.416;6.758;2024-03-25T01:18:40;20.73;;;3.57;;
74900;SDS011;63461;51.416;6.758;2024-03-25T01:21:06;20.70;;;4.23;;
74900;SDS011;63461;51.416;6.758;2024-03-25T01:23:31;20.30;;;4.03;;
74900;SDS011;63461;51.416;6.758;2024-03-25T01:25:57;22.17;;;3.67;;
74900;SDS011;63461;51.416;6.758;2024-03-25T01:28:23;16.90;;;2.80;;
74900;SDS011;63461;51.416;6.758;2024-03-25T01:30:49;21.33;;;3.30;;
74900;SDS011;63461;51.416;6.758;2024-03-25T01:33:18;20.57;;;3.43;;
74900;SDS011;63461;51.416;6.758;2024-03-25T01:35:49;22.10;;;3.60;;
74900;SDS011;63461;51.416;6.758;2024-03-25T01:38:15;22.73;;;3.10;;
74900;SDS011;63461;51.416;6.758;2024-03-25T01:40:41;16.30;;;3.80;;
74900;SDS011;63461;51.416;6.758;2024-03-25T01:43:07;27.03;;;4.57;;
74900;SDS011;63461;51.416;6.758;2024-03-25T01:45:33;13.87;;;3.13;;
74900;SDS011;63461;51.416;6.758;2024-03-25T01:48:02;23.17;;;3.17;;
74900;SDS011;63461;51.416;6.758;2024-03-25T01:50:39;19.30;;;3.33;;
74900;SDS011;63461;51.416;6.758;2024-03-25T01:53:08;18.23;;;3.40;;
74900;SDS011;63461;51.416;6.758;2024-03-25T01:55:36;19.87;;;3.30;;
74900;SDS011;63461;51.416;6.758;2024-03-25T01:58:07;24.07;;;4.50;;
74900;SDS011;63461;51.416;6.758;2024-03-25T02:00:33;23.83;;;4.13;;
74900;SDS011;63461;51.416;6.758;2024-03-25T02:03:00;17.23;;;2.63;;
74900;SDS011;63461;51.416;6.758;2024-03-25T02:05:26;17.43;;;3.30;;
74900;SDS011;63461;51.416;6.758;2024-03-25T02:07:52;22.00;;;3.30;;
74900;SDS011;63461;51.416;6.758;2024-03-25T02:10:19;18.57;;;3.93;;
74900;SDS011;63461;51.416;6.758;2024-03-25T02:12:46;14.90;;;3.43;;
74900;SDS011;63461;51.416;6.758;2024-03-25T02:15:13;25.20;;;4.13;;
74900;SDS011;63461;51.416;6.758;2024-03-25T02:17:39;20.53;;;3.60;;
74900;SDS011;63461;51.416;6.758;2024-03-25T02:20:07;23.43;;;3.60;;
74900;SDS011;63461;51.416;6.758;2024-03-25T02:22:34;19.93;;;3.33;;
74900;SDS011;63461;51.416;6.758;2024-03-25T02:25:08;28.63;;;3.60;;
74900;SDS011;63461;51.416;6.758;2024-03-25T02:27:38;18.20;;;3.30;;
74900;SDS011;63461;51.416;6.758;2024-03-25T02:30:08;29.80;;;4.20;;
74900;SDS011;63461;51.416;6.758;2024-03-25T02:32:37;19.47;;;3.90;;
74900;SDS011;63461;51.416;6.758;2024-03-25T02:35:04;18.57;;;2.77;;
74900;SDS011;63461;51.416;6.758;2024-03-25T02:37:32;16.53;;;3.93;;
74900;SDS011;63461;51.416;6.758;2024-03-25T02:39:59;20.87;;;3.83;;
74900;SDS011;63461;51.416;6.758;2024-03-25T02:42:28;16.80;;;4.67;;
74900;SDS011;63461;51.416;6.758;2024-03-25T02:44:54;24.90;;;4.07;;
74900;SDS011;63461;51.416;6.758;2024-03-25T02:47:21;22.47;;;4.80;;
74900;SDS011;63461;51.416;6.758;2024-03-25T02:49:47;24.40;;;4.17;;
74900;SDS011;63461;51.416;6.758;2024-03-25T02:52:13;25.43;;;4.43;;
74900;SDS011;63461;51.416;6.758;2024-03-25T02:54:38;15.87;;;4.23;;
74900;SDS011;63461;51.416;6.758;2024-03-25T02:57:04;27.23;;;4.83;;
74900;SDS011;63461;51.416;6.758;2024-03-25T02:59:30;17.27;;;4.60;;
74900;SDS011;63461;51.416;6.758;2024-03-25T03:01:56;21.27;;;4.57;;
74900;SDS011;63461;51.416;6.758;2024-03-25T03:04:22;27.03;;;4.37;;
74900;SDS011;63461;51.416;6.758;2024-03-25T03:06:47;22.17;;;4.40;;
74900;SDS011;63461;51.416;6.758;2024-03-25T03:09:13;21.43;;;4.43;;
74900;SDS011;63461;51.416;6.758;2024-03-25T03:11:39;24.37;;;5.40;;
74900;SDS011;63461;51.416;6.758;2024-03-25T03:14:05;20.97;;;4.57;;
74900;SDS011;63461;51.416;6.758;2024-03-25T03:16:31;22.60;;;4.87;;
74900;SDS011;63461;51.416;6.758;2024-03-25T03:18:57;14.50;;;4.47;;
74900;SDS011;63461;51.416;6.758;2024-03-25T03:21:22;14.80;;;4.63;;
74900;SDS011;63461;51.416;6.758;2024-03-25T03:23:48;18.50;;;4.87;;
74900;SDS011;63461;51.416;6.758;2024-03-25T03:26:14;20.17;;;4.40;;
74900;SDS011;63461;51.416;6.758;2024-03-25T03:28:40;17.40;;;4.53;;
74900;SDS011;63461;51.416;6.758;2024-03-25T03:31:06;15.83;;;3.97;;
74900;SDS011;63461;51.416;6.758;2024-03-25T03:33:32;19.93;;;5.10;;
74900;SDS011;63461;51.416;6.758;2024-03-25T03:35:58;20.00;;;4.77;;
74900;SDS011;63461;51.416;6.758;2024-03-25T03:38:23;26.70;;;4.90;;
74900;SDS011;63461;51.416;6.758;2024-03-25T03:40:56;21.47;;;5.10;;
74900;SDS011;63461;51.416;6.758;2024-03-25T03:43:26;23.17;;;4.90;;
74900;SDS011;63461;51.416;6.758;2024-03-25T03:45:51;18.93;;;4.90;;
74900;SDS011;63461;51.416;6.758;2024-03-25T03:48:17;16.50;;;3.93;;
74900;SDS011;63461;51.416;6.758;2024-03-25T03:50:43;20.93;;;4.63;;
74900;SDS011;63461;51.416;6.758;2024-03-25T03:53:09;18.40;;;4.47;;
74900;SDS011;63461;51.416;6.758;2024-03-25T03:55:35;23.10;;;4.10;;
74900;SDS011;63461;51.416;6.758;2024-03-25T03:58:01;23.10;;;4.83;;
74900;SDS011;63461;51.416;6.758;2024-03-25T04:00:27;19.97;;;4.90;;
74900;SDS011;63461;51.416;6.758;2024-03-25T04:02:53;19.57;;;4.57;;
74900;SDS011;63461;51.416;6.758;2024-03-25T04:05:19;22.23;;;5.13;;
74900;SDS011;63461;51.416;6.758;2024-03-25T04:07:45;22.23;;;4.77;;
74900;SDS011;63461;51.416;6.758;2024-03-25T04:10:11;18.87;;;4.33;;
74900;SDS011;63461;51.416;6.758;2024-03-25T04:12:37;29.73;;;5.67;;
74900;SDS011;63461;51.416;6.758;2024-03-25T04:15:04;18.93;;;4.97;;
74900;SDS011;63461;51.416;6.758;2024-03-25T04:17:30;24.90;;;5.10;;
74900;SDS011;63461;51.416;6.758;2024-03-25T04:19:58;24.10;;;5.07;;
74900;SDS011;63461;51.416;6.758;2024-03-25T04:22:31;20.63;;;4.87;;
74900;SDS011;63461;51.416;6.758;2024-03-25T04:24:57;28.60;;;5.23;;
74900;SDS011;63461;51.416;6.758;2024-03-25T04:27:23;17.97;;;4.70;;
74900;SDS011;63461;51.416;6.758;2024-03-25T04:29:49;18.63;;;4.90;;
74900;SDS011;63461;51.416;6.758;2024-03-25T04:32:15;18.77;;;4.73;;
74900;SDS011;63461;51.416;6.758;2024-03-25T04:34:41;16.00;;;4.40;;
74900;SDS011;63461;51.416;6.758;2024-03-25T04:37:07;17.10;;;4.20;;
74900;SDS011;63461;51.416;6.758;2024-03-25T04:39:35;20.17;;;4.63;;
74900;SDS011;63461;51.416;6.758;2024-03-25T04:42:00;23.13;;;4.87;;
74900;SDS011;63461;51.416;6.758;2024-03-25T04:44:28;22.97;;;4.73;;
74900;SDS011;63461;51.416;6.758;2024-03-25T04:46:54;24.00;;;4.60;;
74900;SDS011;63461;51.416;6.758;2024-03-25T04:49:20;22.87;;;5.17;;
74900;SDS011;63461;51.416;6.758;2024-03-25T04:51:45;16.73;;;4.73;;
74900;SDS011;63461;51.416;6.758;2024-03-25T04:54:11;23.67;;;5.03;;
74900;SDS011;63461;51.416;6.758;2024-03-25T04:56:37;27.07;;;5.20;;
74900;SDS011;63461;51.416;6.758;2024-03-25T04:59:05;21.73;;;5.13;;
74900;SDS011;63461;51.416;6.758;2024-03-25T05:01:31;20.17;;;5.07;;
74900;SDS011;63461;51.416;6.758;2024-03-25T05:03:56;31.60;;;5.50;;
74900;SDS011;63461;51.416;6.758;2024-03-25T05:06:22;27.05;;;6.72;;
74900;SDS011;63461;51.416;6.758;2024-03-25T05:08:48;26.47;;;6.23;;
74900;SDS011;63461;51.416;6.758;2024-03-25T05:11:15;18.10;;;5.70;;
74900;SDS011;63461;51.416;6.758;2024-03-25T05:13:41;28.67;;;6.63;;
74900;SDS011;63461;51.416;6.758;2024-03-25T05:16:07;27.33;;;6.23;;
74900;SDS011;63461;51.416;6.758;2024-03-25T05:18:33;24.63;;;6.47;;
74900;SDS011;63461;51.416;6.758;2024-03-25T05:20:58;27.03;;;5.43;;
74900;SDS011;63461;51.416;6.758;2024-03-25T05:23:24;26.07;;;5.53;;
74900;SDS011;63461;51.416;6.758;2024-03-25T05:25:50;26.30;;;5.87;;
74900;SDS011;63461;51.416;6.758;2024-03-25T05:28:16;20.30;;;4.83;;
74900;SDS011;63461;51.416;6.758;2024-03-25T05:30:42;28.77;;;5.60;;
74900;SDS011;63461;51.416;6.758;2024-03-25T05:33:07;21.30;;;5.67;;
74900;SDS011;63461;51.416;6.758;2024-03-25T05:35:34;21.53;;;4.83;;
74900;SDS011;63461;51.416;6.758;2024-03-25T05:38:02;25.50;;;5.77;;
74900;SDS011;63461;51.416;6.758;2024-03-25T05:40:29;25.20;;;5.90;;
74900;SDS011;63461;51.416;6.758;2024-03-25T05:42:54;30.13;;;6.50;;
74900;SDS011;63461;51.416;6.758;2024-03-25T05:45:20;24.70;;;5.90;;
74900;SDS011;63461;51.416;6.758;2024-03-25T05:47:46;25.93;;;4.90;;
74900;SDS011;63461;51.416;6.758;2024-03-25T05:50:12;20.43;;;5.23;;
74900;SDS011;63461;51.416;6.758;2024-03-25T05:52:37;18.53;;;6.00;;
74900;SDS011;63461;51.416;6.758;2024-03-25T05:55:03;20.63;;;5.07;;
74900;SDS011;63461;51.416;6.758;2024-03-25T05:57:29;16.33;;;5.50;;
74900;SDS011;63461;51.416;6.758;2024-03-25T05:59:55;28.47;;;6.30;;
74900;SDS011;63461;51.416;6.758;2024-03-25T06:02:21;23.03;;;5.83;;
74900;SDS011;63461;51.416;6.758;2024-03-25T06:04:47;20.17;;;5.27;;
74900;SDS011;63461;51.416;6.758;2024-03-25T06:07:16;22.53;;;5.70;;
74900;SDS011;63461;51.416;6.758;2024-03-25T06:09:42;21.37;;;5.10;;
74900;SDS011;63461;51.416;6.758;2024-03-25T06:12:08;20.70;;;5.53;;
74900;SDS011;63461;51.416;6.758;2024-03-25T06:14:34;23.23;;;5.20;;
74900;SDS011;63461;51.416;6.758;2024-03-25T06:16:59;26.33;;;6.07;;
74900;SDS011;63461;51.416;6.758;2024-03-25T06:19:25;28.53;;;5.47;;
74900;SDS011;63461;51.416;6.758;2024-03-25T06:21:51;20.73;;;5.50;;
74900;SDS011;63461;51.416;6.758;2024-03-25T06:24:17;23.23;;;4.97;;
74900;SDS011;63461;51.416;6.758;2024-03-25T06:26:42;23.60;;;6.17;;
74900;SDS011;63461;51.416;6.758;2024-03-25T06:29:08;21.60;;;5.70;;
74900;SDS011;63461;51.416;6.758;2024-03-25T06:31:34;15.63;;;4.80;;
74900;SDS011;63461;51.416;6.758;2024-03-25T06:34:18;27.87;;;5.60;;
74900;SDS011;63461;51.416;6.758;2024-03-25T06:36:47;23.87;;;5.50;;
74900;SDS011;63461;51.416;6.758;2024-03-25T06:39:16;30.00;;;5.77;;
74900;SDS011;63461;51.416;6.758;2024-03-25T06:41:42;24.07;;;5.40;;
74900;SDS011;63461;51.416;6.758;2024-03-25T06:44:08;27.27;;;5.53;;
74900;SDS011;63461;51.416;6.758;2024-03-25T06:46:33;23.97;;;5.30;;
74900;SDS011;63461;51.416;6.758;2024-03-25T06:48:59;21.07;;;5.60;;
74900;SDS011;63461;51.416;6.758;2024-03-25T06:51:25;23.00;;;5.73;;
74900;SDS011;63461;51.416;6.758;2024-03-25T06:53:51;20.23;;;5.53;;
74900;SDS011;63461;51.416;6.758;2024-03-25T06:56:18;24.83;;;6.80;;
74900;SDS011;63461;51.416;6.758;2024-03-25T06:58:43;21.70;;;6.53;;
74900;SDS011;63461;51.416;6.758;2024-03-25T07:01:09;22.17;;;5.60;;
74900;SDS011;63461;51.416;6.758;2024-03-25T07:03:38;19.17;;;5.73;;
74900;SDS011;63461;51.416;6.758;2024-03-25T07:06:04;27.00;;;6.13;;
74900;SDS011;63461;51.416;6.758;2024-03-25T07:08:30;30.03;;;7.00;;
74900;SDS011;63461;51.416;6.758;2024-03-25T07:10:56;26.23;;;5.90;;
74900;SDS011;63461;51.416;6.758;2024-03-25T07:13:22;26.50;;;5.50;;
74900;SDS011;63461;51.416;6.758;2024-03-25T07:15:49;23.10;;;5.17;;
74900;SDS011;63461;51.416;6.758;2024-03-25T07:18:15;25.43;;;5.83;;
74900;SDS011;63461;51.416;6.758;2024-03-25T07:20:42;22.63;;;5.63;;
74900;SDS011;63461;51.416;6.758;2024-03-25T07:23:09;26.57;;;6.30;;
74900;SDS011;63461;51.416;6.758;2024-03-25T07:25:35;22.37;;;5.80;;
74900;SDS011;63461;51.416;6.758;2024-03-25T07:28:01;22.63;;;6.27;;
74900;SDS011;63461;51.416;6.758;2024-03-25T07:30:28;17.80;;;5.13;;
74900;SDS011;63461;51.416;6.758;2024-03-25T07:32:55;26.50;;;5.90;;
74900;SDS011;63461;51.416;6.758;2024-03-25T07:35:21;20.47;;;4.97;;
74900;SDS011;63461;51.416;6.758;2024-03-25T07:37:47;30.37;;;5.57;;
74900;SDS011;63461;51.416;6.758;2024-03-25T07:40:16;26.53;;;5.57;;
74900;SDS011;63461;51.416;6.758;2024-03-25T07:42:43;25.87;;;5.87;;
74900;SDS011;63461;51.416;6.758;2024-03-25T07:45:09;16.30;;;5.10;;
74900;SDS011;63461;51.416;6.758;2024-03-25T07:47:35;22.90;;;5.13;;
74900;SDS011;63461;51.416;6.758;2024-03-25T07:50:01;24.97;;;5.77;;
74900;SDS011;63461;51.416;6.758;2024-03-25T07:52:27;25.60;;;5.67;;
74900;SDS011;63461;51.416;6.758;2024-03-25T07:54:53;20.60;;;5.20;;
74900;SDS011;63461;51.416;6.758;2024-03-25T07:57:19;23.90;;;5.47;;
74900;SDS011;63461;51.416;6.758;2024-03-25T07:59:46;23.90;;;5.20;;
74900;SDS011;63461;51.416;6.758;2024-03-25T08:02:11;16.53;;;5.00;;
74900;SDS011;63461;51.416;6.758;2024-03-25T08:04:37;21.13;;;4.93;;
74900;SDS011;63461;51.416;6.758;2024-03-25T08:07:03;24.43;;;5.30;;
74900;SDS011;63461;51.416;6.758;2024-03-25T08:09:29;17.53;;;4.90;;
74900;SDS011;63461;51.416;6.758;2024-03-25T08:11:55;25.60;;;5.03;;
74900;SDS011;63461;51.416;6.758;2024-03-25T08:14:21;18.37;;;4.67;;
74900;SDS011;63461;51.416;6.758;2024-03-25T08:16:47;19.13;;;4.73;;
74900;SDS011;63461;51.416;6.758;2024-03-25T08:19:13;19.97;;;5.23;;
74900;SDS011;63461;51.416;6.758;2024-03-25T08:21:39;18.83;;;5.27;;
74900;SDS011;63461;51.416;6.758;2024-03-25T08:24:05;24.17;;;5.23;;
74900;SDS011;63461;51.416;6.758;2024-03-25T08:26:31;21.33;;;5.73;;
74900;SDS011;63461;51.416;6.758;2024-03-25T08:28:57;29.70;;;4.93;;
74900;SDS011;63461;51.416;6.758;2024-03-25T08:31:23;19.70;;;5.03;;
74900;SDS011;63461;51.416;6.758;2024-03-25T08:33:49;20.27;;;5.60;;
74900;SDS011;63461;51.416;6.758;2024-03-25T08:36:15;23.73;;;5.77;;
74900;SDS011;63461;51.416;6.758;2024-03-25T08:38:41;25.67;;;5.30;;
74900;SDS011;63461;51.416;6.758;2024-03-25T08:41:07;26.27;;;5.27;;
74900;SDS011;63461;51.416;6.758;2024-03-25T08:43:33;24.90;;;5.83;;
74900;SDS011;63461;51.416;6.758;2024-03-25T08:45:58;23.30;;;4.67;;
74900;SDS011;63461;51.416;6.758;2024-03-25T08:48:24;19.70;;;4.60;;
74900;SDS011;63461;51.416;6.758;2024-03-25T08:50:50;18.30;;;4.60;;
74900;SDS011;63461;51.416;6.758;2024-03-25T08:53:16;28.67;;;5.10;;
74900;SDS011;63461;51.416;6.758;2024-03-25T08:55:45;28.40;;;4.67;;
74900;SDS011;63461;51.416;6.758;2024-03-25T08:58:12;27.53;;;5.27;;
74900;SDS011;63461;51.416;6.758;2024-03-25T09:00:38;17.33;;;4.97;;
74900;SDS011;63461;51.416;6.758;2024-03-25T09:03:04;17.43;;;4.53;;
74900;SDS011;63461;51.416;6.758;2024-03-25T09:05:30;21.20;;;5.23;;
74900;SDS011;63461;51.416;6.758;2024-03-25T09:07:57;21.97;;;5.70;;
74900;SDS011;63461;51.416;6.758;2024-03-25T09:10:24;21.93;;;6.63;;
74900;SDS011;63461;51.416;6.758;2024-03-25T09:13:09;22.40;;;7.33;;
74900;SDS011;63461;51.416;6.758;2024-03-25T09:15:35;21.10;;;6.50;;
74900;SDS011;63461;51.416;6.758;2024-03-25T09:18:01;29.70;;;6.67;;
74900;SDS011;63461;51.416;6.758;2024-03-25T09:20:26;22.57;;;6.27;;
74900;SDS011;63461;51.416;6.758;2024-03-25T09:22:54;26.63;;;6.43;;
74900;SDS011;63461;51.416;6.758;2024-03-25T09:25:19;18.67;;;6.17;;
74900;SDS011;63461;51.416;6.758;2024-03-25T09:27:46;20.57;;;6.07;;
74900;SDS011;63461;51.416;6.758;2024-03-25T09:30:12;23.63;;;6.70;;
74900;SDS011;63461;51.416;6.758;2024-03-25T09:32:39;15.17;;;4.80;;
74900;SDS011;63461;51.416;6.758;2024-03-25T09:35:08;18.87;;;4.40;;
74900;SDS011;63461;51.416;6.758;2024-03-25T09:37:34;14.47;;;3.70;;
74900;SDS011;63461;51.416;6.758;2024-03-25T09:40:00;14.53;;;3.20;;
74900;SDS011;63461;51.416;6.758;2024-03-25T09:42:27;19.40;;;3.00;;
74900;SDS011;63461;51.416;6.758;2024-03-25T09:44:56;14.77;;;2.67;;
74900;SDS011;63461;51.416;6.758;2024-03-25T09:47:22;16.87;;;3.00;;
74900;SDS011;63461;51.416;6.758;2024-03-25T09:49:49;11.10;;;2.80;;
74900;SDS011;63461;51.416;6.758;2024-03-25T09:52:17;14.40;;;2.63;;
74900;SDS011;63461;51.416;6.758;2024-03-25T09:54:44;12.50;;;2.60;;
74900;SDS011;63461;51.416;6.758;2024-03-25T09:57:10;13.33;;;2.53;;
74900;SDS011;63461;51.416;6.758;2024-03-25T09:59:37;13.80;;;3.40;;
74900;SDS011;63461;51.416;6.758;2024-03-25T10:02:04;11.07;;;3.00;;
74900;SDS011;63461;51.416;6.758;2024-03-25T10:04:32;15.83;;;2.83;;
74900;SDS011;63461;51.416;6.758;2024-03-25T10:06:58;13.73;;;2.70;;
74900;SDS011;63461;51.416;6.758;2024-03-25T10:09:24;17.13;;;3.77;;
74900;SDS011;63461;51.416;6.758;2024-03-25T10:11:51;13.90;;;3.67;;
74900;SDS011;63461;51.416;6.758;2024-03-25T10:14:17;12.83;;;3.73;;
74900;SDS011;63461;51.416;6.758;2024-03-25T10:16:48;12.17;;;3.53;;
74900;SDS011;63461;51.416;6.758;2024-03-25T10:19:14;15.17;;;3.60;;
74900;SDS011;63461;51.416;6.758;2024-03-25T10:21:40;13.07;;;3.07;;
74900;SDS011;63461;51.416;6.758;2024-03-25T10:24:06;14.60;;;3.77;;
74900;SDS011;63461;51.416;6.758;2024-03-25T10:26:32;16.47;;;4.03;;
74900;SDS011;63461;51.416;6.758;2024-03-25T10:29:06;14.40;;;3.43;;
74900;SDS011;63461;51.416;6.758;2024-03-25T10:31:33;14.30;;;3.43;;
74900;SDS011;63461;51.416;6.758;2024-03-25T10:33:59;14.03;;;3.40;;
74900;SDS011;63461;51.416;6.758;2024-03-25T10:36:26;13.80;;;4.00;;
74900;SDS011;63461;51.416;6.758;2024-03-25T10:38:56;12.93;;;3.20;;
74900;SDS011;63461;51.416;6.758;2024-03-25T10:41:24;12.23;;;3.37;;
74900;SDS011;63461;51.416;6.758;2024-03-25T10:43:52;14.57;;;3.70;;
74900;SDS011;63461;51.416;6.758;2024-03-25T10:46:19;14.03;;;3.63;;
74900;SDS011;63461;51.416;6.758;2024-03-25T10:49:11;14.53;;;4.07;;
74900;SDS011;63461;51.416;6.758;2024-03-25T10:51:41;17.13;;;4.27;;
74900;SDS011;63461;51.416;6.758;2024-03-25T10:54:10;17.57;;;4.57;;
74900;SDS011;63461;51.416;6.758;2024-03-25T10:56:37;15.97;;;4.80;;
74900;SDS011;63461;51.416;6.758;2024-03-25T10:59:04;14.10;;;4.77;;
74900;SDS011;63461;51.416;6.758;2024-03-25T11:01:34;15.87;;;4.17;;
74900;SDS011;63461;51.416;6.758;2024-03-25T11:04:00;14.93;;;4.10;;
74900;SDS011;63461;51.416;6.758;2024-03-25T11:06:26;13.77;;;4.03;;
74900;SDS011;63461;51.416;6.758;2024-03-25T11:08:56;16.73;;;4.03;;
74900;SDS011;63461;51.416;6.758;2024-03-25T11:11:23;14.70;;;3.27;;
74900;SDS011;63461;51.416;6.758;2024-03-25T11:13:48;19.00;;;4.10;;
74900;SDS011;63461;51.416;6.758;2024-03-25T11:16:25;8.53;;;4.00;;
74900;SDS011;63461;51.416;6.758;2024-03-25T11:18:54;21.23;;;5.13;;
74900;SDS011;63461;51.416;6.758;2024-03-25T11:21:26;16.80;;;4.73;;
74900;SDS011;63461;51.416;6.758;2024-03-25T11:23:52;19.10;;;5.10;;
74900;SDS011;63461;51.416;6.758;2024-03-25T11:26:27;18.03;;;4.33;;
74900;SDS011;63461;51.416;6.758;2024-03-25T11:28:54;12.87;;;3.97;;
74900;SDS011;63461;51.416;6.758;2024-03-25T11:31:20;14.50;;;4.37;;
74900;SDS011;63461;51.416;6.758;2024-03-25T11:33:49;17.53;;;5.10;;
74900;SDS011;63461;51.416;6.758;2024-03-25T11:36:15;14.53;;;4.00;;
74900;SDS011;63461;51.416;6.758;2024-03-25T11:38:43;14.33;;;4.27;;
74900;SDS011;63461;51.416;6.758;2024-03-25T11:41:12;13.37;;;4.50;;
74900;SDS011;63461;51.416;6.758;2024-03-25T11:43:39;11.93;;;4.00;;
74900;SDS011;63461;51.416;6.758;2024-03-25T11:46:07;16.23;;;4.33;;
74900;SDS011;63461;51.416;6.758;2024-03-25T11:48:33;13.80;;;3.67;;
74900;SDS011;63461;51.416;6.758;2024-03-25T11:50:58;14.47;;;4.10;;
74900;SDS011;63461;51.416;6.758;2024-03-25T11:53:26;13.03;;;3.57;;
74900;SDS011;63461;51.416;6.758;2024-03-25T11:55:52;7.87;;;2.40;;
74900;SDS011;63461;51.416;6.758;2024-03-25T11:58:18;8.80;;;2.67;;
74900;SDS011;63461;51.416;6.758;2024-03-25T12:00:45;8.80;;;2.70;;
74900;SDS011;63461;51.416;6.758;2024-03-25T12:03:15;11.00;;;2.43;;
74900;SDS011;63461;51.416;6.758;2024-03-25T12:05:44;10.87;;;3.57;;
74900;SDS011;63461;51.416;6.758;2024-03-25T12:08:10;5.77;;;2.20;;
74900;SDS011;63461;51.416;6.758;2024-03-25T12:10:39;9.47;;;2.40;;
74900;SDS011;63461;51.416;6.758;2024-03-25T12:13:25;7.73;;;2.07;;
74900;SDS011;63461;51.416;6.758;2024-03-25T12:15:52;10.07;;;2.37;;
74900;SDS011;63461;51.416;6.758;2024-03-25T12:18:18;7.03;;;2.37;;
74900;SDS011;63461;51.416;6.758;2024-03-25T12:20:45;8.90;;;2.37;;
74900;SDS011;63461;51.416;6.758;2024-03-25T12:23:11;9.37;;;2.20;;
74900;SDS011;63461;51.416;6.758;2024-03-25T12:25:37;7.27;;;2.03;;
74900;SDS011;63461;51.416;6.758;2024-03-25T12:28:10;7.73;;;2.70;;
74900;SDS011;63461;51.416;6.758;2024-03-25T12:30:49;7.13;;;2.37;;
74900;SDS011;63461;51.416;6.758;2024-03-25T12:33:18;12.83;;;2.67;;
74900;SDS011;63461;51.416;6.758;2024-03-25T12:35:47;9.60;;;2.40;;
74900;SDS011;63461;51.416;6.758;2024-03-25T12:38:26;11.07;;;3.27;;
74900;SDS011;63461;51.416;6.758;2024-03-25T12:40:53;8.97;;;2.67;;
74900;SDS011;63461;51.416;6.758;2024-03-25T12:43:30;8.83;;;2.83;;
74900;SDS011;63461;51.416;6.758;2024-03-25T12:45:58;8.97;;;2.77;;
74900;SDS011;63461;51.416;6.758;2024-03-25T12:48:24;10.93;;;2.70;;
74900;SDS011;63461;51.416;6.758;2024-03-25T12:50:50;9.20;;;3.00;;
74900;SDS011;63461;51.416;6.758;2024-03-25T12:53:17;8.60;;;2.80;;
74900;SDS011;63461;51.416;6.758;2024-03-25T12:55:44;9.03;;;2.87;;
74900;SDS011;63461;51.416;6.758;2024-03-25T12:58:11;11.03;;;2.50;;
74900;SDS011;63461;51.416;6.758;2024-03-25T13:00:37;8.73;;;2.80;;
74900;SDS011;63461;51.416;6.758;2024-03-25T13:03:07;9.90;;;3.23;;
74900;SDS011;63461;51.416;6.758;2024-03-25T13:05:33;7.63;;;2.47;;
74900;SDS011;63461;51.416;6.758;2024-03-25T13:08:00;9.47;;;3.07;;
74900;SDS011;63461;51.416;6.758;2024-03-25T13:10:26;8.10;;;2.10;;
74900;SDS011;63461;51.416;6.758;2024-03-25T13:12:53;6.70;;;2.00;;
74900;SDS011;63461;51.416;6.758;2024-03-25T13:15:19;5.97;;;2.57;;
74900;SDS011;63461;51.416;6.758;2024-03-25T13:17:44;8.40;;;2.77;;
74900;SDS011;63461;51.416;6.758;2024-03-25T13:20:10;13.17;;;3.30;;
74900;SDS011;63461;51.416;6.758;2024-03-25T13:22:36;10.63;;;2.93;;
74900;SDS011;63461;51.416;6.758;2024-03-25T13:25:03;15.93;;;4.73;;
74900;SDS011;63461;51.416;6.758;2024-03-25T13:27:30;14.27;;;4.53;;
74900;SDS011;63461;51.416;6.758;2024-03-25T13:29:56;15.27;;;4.83;;
74900;SDS011;63461;51.416;6.758;2024-03-25T13:32:22;12.90;;;5.03;;
74900;SDS011;63461;51.416;6.758;2024-03-25T13:34:49;9.50;;;3.63;;
74900;SDS011;63461;51.416;6.758;2024-03-25T13:37:15;13.33;;;3.80;;
74900;SDS011;63461;51.416;6.758;2024-03-25T13:39:41;37.57;;;9.73;;
74900;SDS011;63461;51.416;6.758;2024-03-25T13:42:07;13.53;;;3.97;;
74900;SDS011;63461;51.416;6.758;2024-03-25T13:44:33;7.23;;;2.67;;
74900;SDS011;63461;51.416;6.758;2024-03-25T13:46:58;7.63;;;2.23;;
74900;SDS011;63461;51.416;6.758;2024-03-25T13:49:24;8.37;;;2.53;;
74900;SDS011;63461;51.416;6.758;2024-03-25T13:51:51;14.67;;;5.10;;
74900;SDS011;63461;51.416;6.758;2024-03-25T13:54:22;14.83;;;3.87;;
74900;SDS011;63461;51.416;6.758;2024-03-25T13:56:48;14.97;;;5.50;;
74900;SDS011;63461;51.416;6.758;2024-03-25T13:59:13;12.67;;;3.30;;
74900;SDS011;63461;51.416;6.758;2024-03-25T14:01:40;10.20;;;3.13;;
74900;SDS011;63461;51.416;6.758;2024-03-25T14:04:06;10.53;;;2.40;;
74900;SDS011;63461;51.416;6.758;2024-03-25T14:06:32;11.37;;;3.80;;
74900;SDS011;63461;51.416;6.758;2024-03-25T14:08:58;12.23;;;4.07;;
74900;SDS011;63461;51.416;6.758;2024-03-25T14:11:25;10.30;;;2.77;;
74900;SDS011;63461;51.416;6.758;2024-03-25T14:13:50;11.47;;;2.80;;
74900;SDS011;63461;51.416;6.758;2024-03-25T14:16:16;13.60;;;5.67;;
74900;SDS011;63461;51.416;6.758;2024-03-25T14:18:42;13.10;;;3.43;;
74900;SDS011;63461;51.416;6.758;2024-03-25T14:21:08;13.63;;;3.70;;
74900;SDS011;63461;51.416;6.758;2024-03-25T14:23:34;9.63;;;3.67;;
74900;SDS011;63461;51.416;6.758;2024-03-25T14:25:59;18.83;;;4.90;;
74900;SDS011;63461;51.416;6.758;2024-03-25T14:28:25;10.13;;;2.93;;
74900;SDS011;63461;51.416;6.758;2024-03-25T14:30:51;5.23;;;2.00;;
74900;SDS011;63461;51.416;6.758;2024-03-25T14:33:17;8.50;;;2.70;;